createdAt,value
2023-01-11T00:02:00.146Z,202.45
2023-01-11T00:04:30.653Z,185.15
2023-01-11T00:06:58.197Z,185.57
2023-01-11T00:09:25.101Z,183.75
2023-01-11T00:11:51.968Z,178.23
2023-01-11T00:14:19.025Z,176.00
2023-01-11T00:16:45.882Z,184.20
2023-01-11T00:19:13.176Z,174.40
2023-01-11T00:21:40.093Z,167.23
2023-01-11T00:24:07.063Z,179.32
2023-01-11T00:26:33.904Z,173.98
2023-01-11T00:29:00.746Z,176.60
2023-01-11T00:31:27.676Z,179.75
2023-01-11T00:33:55.310Z,177.68
2023-01-11T00:36:22.162Z,177.10
2023-01-11T00:38:53.973Z,174.90
2023-01-11T00:41:40.973Z,173.20
2023-01-11T00:44:29.327Z,170.07
2023-01-11T00:47:14.719Z,178.02
2023-01-11T00:49:41.880Z,182.95
2023-01-11T00:52:09.985Z,171.85
2023-01-11T00:54:41.743Z,177.00
2023-01-11T00:57:09.378Z,184.20
2023-01-11T00:59:37.693Z,188.10
2023-01-11T01:02:04.575Z,182.82
2023-01-11T01:04:31.804Z,175.98
2023-01-11T01:06:59.050Z,187.27
2023-01-11T01:09:26.182Z,166.73
2023-01-11T01:11:53.215Z,172.25
2023-01-11T01:14:26.346Z,177.93
2023-01-11T01:16:58.088Z,167.25
2023-01-11T01:19:27.915Z,164.23
2023-01-11T01:21:56.529Z,169.63
2023-01-11T01:24:24.420Z,177.60
2023-01-11T01:26:51.960Z,188.05
2023-01-11T01:29:18.920Z,180.25
2023-01-11T01:31:45.799Z,189.27
2023-01-11T01:34:13.818Z,180.20
2023-01-11T01:36:40.801Z,173.75
2023-01-11T01:39:08.552Z,191.27
2023-01-11T01:41:35.831Z,182.10
2023-01-11T01:44:06.413Z,179.90
2023-01-11T01:46:34.406Z,176.23
2023-01-11T01:49:12.144Z,185.02
2023-01-11T01:51:52.627Z,180.45
2023-01-11T01:54:26.762Z,186.32
2023-01-11T01:57:02.543Z,187.23
2023-01-11T01:59:33.506Z,185.52
2023-01-11T02:02:01.275Z,180.48
2023-01-11T02:04:28.078Z,172.88
2023-01-11T02:07:09.529Z,183.82
2023-01-11T02:09:49.291Z,186.60
2023-01-11T02:12:16.650Z,178.10
2023-01-11T02:14:45.245Z,182.73
2023-01-11T02:17:12.701Z,189.80
2023-01-11T02:19:57.765Z,183.00
2023-01-11T02:23:06.493Z,179.82
2023-01-11T02:26:01.318Z,194.60
2023-01-11T02:29:03.725Z,191.35
2023-01-11T02:31:48.509Z,186.52
2023-01-11T02:34:24.050Z,181.63
2023-01-11T02:37:08.228Z,184.40
2023-01-11T02:40:07.803Z,195.95
2023-01-11T02:42:57.168Z,210.93
2023-01-11T02:45:47.643Z,207.65
2023-01-11T02:48:24.145Z,196.15
2023-01-11T02:51:13.110Z,194.82
2023-01-11T02:53:53.949Z,206.48
2023-01-11T02:56:25.985Z,196.63
2023-01-11T02:58:55.956Z,205.85
2023-01-11T03:01:23.658Z,200.73
2023-01-11T03:03:51.971Z,190.13
2023-01-11T03:06:22.725Z,205.07
2023-01-11T03:09:04.824Z,188.60
2023-01-11T03:12:09.547Z,187.80
2023-01-11T03:14:59.564Z,196.70
2023-01-11T03:17:41.551Z,202.77
2023-01-11T03:20:40.896Z,197.32
2023-01-11T03:24:01.851Z,193.93
2023-01-11T03:26:46.403Z,206.45
2023-01-11T03:29:21.379Z,198.88
2023-01-11T03:32:04.797Z,201.00
2023-01-11T03:34:40.685Z,208.95
2023-01-11T03:37:12.966Z,204.55
2023-01-11T03:40:02.989Z,200.65
2023-01-11T03:42:33.349Z,202.52
2023-01-11T03:45:03.141Z,199.00
2023-01-11T03:47:30.821Z,198.57
2023-01-11T03:50:06.959Z,201.88
2023-01-11T03:52:38.674Z,205.15
2023-01-11T03:55:09.804Z,207.10
2023-01-11T03:57:41.135Z,206.75
2023-01-11T04:00:10.132Z,200.90
2023-01-11T04:02:41.203Z,204.38
2023-01-11T04:05:10.876Z,197.80
2023-01-11T04:07:38.249Z,197.43
2023-01-11T04:10:05.975Z,196.32
2023-01-11T04:12:32.792Z,193.02
2023-01-11T04:14:59.699Z,203.38
2023-01-11T04:17:26.558Z,195.02
2023-01-11T04:19:53.351Z,197.25
2023-01-11T04:22:20.173Z,200.02
2023-01-11T04:24:46.976Z,202.30
2023-01-11T04:27:13.830Z,205.32
2023-01-11T04:29:40.625Z,190.77
2023-01-11T04:32:07.404Z,192.73
2023-01-11T04:34:34.251Z,190.73
2023-01-11T04:37:01.038Z,203.00
2023-01-11T04:39:27.874Z,211.18
2023-01-11T04:42:13.389Z,206.50
2023-01-11T04:44:40.187Z,192.73
2023-01-11T04:47:07.005Z,198.68
2023-01-11T04:49:33.845Z,208.52
2023-01-11T04:52:00.716Z,213.85
2023-01-11T04:54:27.706Z,211.75
2023-01-11T04:56:54.487Z,208.35
2023-01-11T04:59:21.309Z,210.88
2023-01-11T05:01:48.095Z,205.65
2023-01-11T05:04:14.982Z,215.40
2023-01-11T05:06:41.902Z,202.65
2023-01-11T05:09:15.200Z,207.32
2023-01-11T05:11:42.029Z,210.05
2023-01-11T05:14:09.272Z,213.27
2023-01-11T05:16:36.421Z,207.63
2023-01-11T05:19:04.778Z,218.55
2023-01-11T05:21:34.910Z,217.57
2023-01-11T05:24:04.295Z,215.38
2023-01-11T05:26:38.471Z,206.75
2023-01-11T05:29:09.441Z,208.05
2023-01-11T05:31:39.856Z,214.02
2023-01-11T05:34:09.134Z,235.75
2023-01-11T05:36:37.954Z,214.57
2023-01-11T05:39:07.818Z,219.45
2023-01-11T05:41:38.708Z,215.30
2023-01-11T05:44:31.874Z,212.18
2023-01-11T05:47:01.259Z,217.02
2023-01-11T05:49:30.594Z,211.50
2023-01-11T05:51:59.706Z,205.40
2023-01-11T05:54:28.747Z,202.70
2023-01-11T05:56:58.697Z,213.10
2023-01-11T05:59:30.398Z,208.15
2023-01-11T06:02:00.785Z,201.93
2023-01-11T06:04:29.365Z,205.50
2023-01-11T06:23:02.271Z,200.68
2023-01-11T06:25:39.891Z,207.60
2023-01-11T06:28:51.260Z,196.20
2023-01-11T06:49:40.045Z,198.07
2023-01-11T06:52:06.857Z,201.05
2023-01-11T06:54:33.741Z,193.20
2023-01-11T06:57:00.588Z,190.00
2023-01-11T06:59:27.431Z,200.13
2023-01-11T07:01:54.330Z,191.77
2023-01-11T07:04:21.788Z,196.27
2023-01-11T07:06:48.640Z,202.88
2023-01-11T07:09:15.551Z,200.00
2023-01-11T07:11:42.492Z,194.82
2023-01-11T07:14:09.840Z,204.70
2023-01-11T07:16:36.651Z,192.52
2023-01-11T07:19:03.508Z,191.38
2023-01-11T07:21:30.440Z,199.05
2023-01-11T07:23:57.490Z,192.57
2023-01-11T07:26:26.616Z,198.60
2023-01-11T07:28:53.467Z,193.85
2023-01-11T07:31:20.294Z,194.43
2023-01-11T07:33:47.199Z,190.32
2023-01-11T07:36:14.124Z,188.90
2023-01-11T07:38:41.034Z,193.90
2023-01-11T07:41:27.808Z,193.75
2023-01-11T07:43:54.669Z,189.50
2023-01-11T07:46:21.614Z,201.32
2023-01-11T07:48:48.480Z,191.52
2023-01-11T07:51:16.898Z,197.63
2023-01-11T07:53:43.770Z,185.73
2023-01-11T07:56:10.774Z,192.82
2023-01-11T07:58:37.629Z,187.65
2023-01-11T08:01:05.231Z,184.80
2023-01-11T08:03:32.227Z,186.00
2023-01-11T08:05:59.107Z,194.70
2023-01-11T08:08:26.058Z,193.95
2023-01-11T08:11:12.864Z,191.68
2023-01-11T08:16:27.552Z,195.00
2023-01-11T08:18:54.438Z,192.77
2023-01-11T08:21:24.072Z,211.55
2023-01-11T08:23:57.735Z,211.93
2023-01-11T08:26:26.741Z,211.70
2023-01-11T08:28:54.767Z,203.40
2023-01-11T08:31:22.520Z,204.68
2023-01-11T08:33:50.282Z,206.73
2023-01-11T08:36:17.728Z,193.65
2023-01-11T08:38:45.514Z,207.90
2023-01-11T08:41:14.301Z,185.88
2023-01-11T08:43:42.454Z,188.95
2023-01-11T08:46:10.711Z,200.68
2023-01-11T08:48:37.796Z,192.77
2023-01-11T08:51:04.782Z,191.43
2023-01-11T08:53:31.727Z,190.90
2023-01-11T08:55:58.706Z,190.07
2023-01-11T08:58:25.740Z,192.57
2023-01-11T09:00:52.699Z,212.00
2023-01-11T09:03:19.533Z,196.07
2023-01-11T09:05:46.373Z,202.75
2023-01-11T09:08:16.453Z,201.50
2023-01-11T09:10:43.343Z,189.20
2023-01-11T09:13:10.219Z,187.88
2023-01-11T09:15:37.129Z,194.40
2023-01-11T09:18:05.347Z,198.15
2023-01-11T09:20:32.284Z,190.25
2023-01-11T09:22:59.334Z,189.93
2023-01-11T09:25:26.214Z,184.73
2023-01-11T09:27:53.114Z,195.40
2023-01-11T09:30:22.787Z,198.13
2023-01-11T09:32:52.026Z,189.73
2023-01-11T09:35:20.207Z,191.68
2023-01-11T09:37:51.775Z,189.75
2023-01-11T09:40:31.060Z,189.88
2023-01-11T09:43:01.562Z,193.40
2023-01-11T09:45:31.760Z,211.98
2023-01-11T09:48:11.695Z,216.13
2023-01-11T09:50:45.755Z,233.98
2023-01-11T09:53:23.640Z,226.80
2023-01-11T09:55:53.029Z,270.25
2023-01-11T09:58:38.665Z,236.18
2023-01-11T10:01:36.328Z,259.00
2023-01-11T10:04:39.137Z,223.80
2023-01-11T10:07:06.627Z,218.88
2023-01-11T10:18:34.082Z,253.38
2023-01-11T10:19:04.288Z,225.77
2023-01-11T10:24:23.867Z,254.63
2023-01-11T10:26:56.932Z,234.15
2023-01-11T10:29:53.829Z,234.88
2023-01-11T10:32:54.377Z,212.90
2023-01-11T10:35:47.131Z,214.93
2023-01-11T10:38:52.235Z,212.55
2023-01-11T10:41:49.160Z,205.65
2023-01-11T10:44:23.737Z,209.02
2023-01-11T10:46:53.978Z,197.45
2023-01-11T10:49:39.300Z,195.70
2023-01-11T10:52:20.214Z,179.95
2023-01-11T10:54:51.096Z,197.13
2023-01-11T10:57:24.160Z,207.43
2023-01-11T11:00:21.030Z,198.45
2023-01-11T11:02:53.901Z,201.20
2023-01-11T11:05:58.795Z,196.82
2023-01-11T11:09:07.996Z,197.32
2023-01-11T11:11:41.142Z,208.88
2023-01-11T11:14:30.847Z,195.13
2023-01-11T11:17:18.436Z,191.18
2023-01-11T11:19:48.198Z,205.98
2023-01-11T11:22:15.142Z,207.00
2023-01-11T11:25:05.565Z,187.57
2023-01-11T11:27:50.513Z,186.23
2023-01-11T11:30:28.541Z,185.75
2023-01-11T11:33:01.029Z,191.38
2023-01-11T11:36:02.292Z,178.23
2023-01-11T11:38:31.621Z,182.00
2023-01-11T11:41:13.361Z,177.15
2023-01-11T11:43:42.885Z,186.35
2023-01-11T11:46:19.370Z,169.57
2023-01-11T11:49:23.799Z,169.60
2023-01-11T11:51:51.883Z,177.75
2023-01-11T11:54:21.129Z,202.23
2023-01-11T11:56:49.064Z,196.00
2023-01-11T11:59:22.453Z,197.98
2023-01-11T12:01:57.667Z,188.82
2023-01-11T12:04:51.012Z,213.68
2023-01-11T12:07:24.421Z,206.23
2023-01-11T12:10:00.245Z,202.95
2023-01-11T12:12:29.552Z,210.73
2023-01-11T12:15:21.925Z,217.00
2023-01-11T12:17:49.576Z,218.95
2023-01-11T12:20:22.450Z,219.70
2023-01-11T12:23:21.647Z,213.57
2023-01-11T12:26:27.006Z,206.15
2023-01-11T12:29:05.882Z,204.95
2023-01-11T12:31:56.451Z,197.02
2023-01-11T12:34:50.600Z,207.23
2023-01-11T12:37:55.826Z,210.50
2023-01-11T12:40:52.555Z,207.15
2023-01-11T12:43:38.862Z,200.60
2023-01-11T12:46:35.031Z,195.18
2023-01-11T12:49:20.424Z,207.38
2023-01-11T12:52:30.605Z,191.38
2023-01-11T12:55:15.314Z,198.15
2023-01-11T12:57:53.788Z,204.63
2023-01-11T13:00:39.407Z,195.98
2023-01-11T13:03:24.469Z,202.48
2023-01-11T13:06:09.292Z,214.63
2023-01-11T13:08:57.581Z,199.52
2023-01-11T13:11:50.116Z,197.68
2023-01-11T13:14:32.123Z,206.35
2023-01-11T13:17:08.541Z,187.35
2023-01-11T13:19:50.467Z,196.48
2023-01-11T13:22:22.411Z,205.65
2023-01-11T13:24:51.034Z,208.52
2023-01-11T13:27:24.474Z,196.90
2023-01-11T13:29:55.294Z,189.32
2023-01-11T13:32:30.348Z,196.63
2023-01-11T13:35:07.798Z,200.25
2023-01-11T13:37:41.387Z,194.55
2023-01-11T13:40:12.357Z,192.43
2023-01-11T13:42:44.499Z,197.27
2023-01-11T13:45:46.968Z,193.60
2023-01-11T13:48:28.697Z,191.48
2023-01-11T13:51:23.159Z,195.18
2023-01-11T13:54:11.953Z,189.15
2023-01-11T13:56:42.837Z,189.45
2023-01-11T13:59:16.539Z,199.63
2023-01-11T14:02:12.123Z,189.65
2023-01-11T14:04:53.170Z,194.18
2023-01-11T14:07:40.169Z,189.60
2023-01-11T14:10:41.500Z,189.45
2023-01-11T14:14:11.261Z,200.73
2023-01-11T14:16:53.255Z,190.02
2023-01-11T14:19:38.688Z,187.77
2023-01-11T14:22:34.449Z,201.63
2023-01-11T14:25:04.281Z,195.40
2023-01-11T14:28:08.707Z,198.25
2023-01-11T14:30:52.263Z,191.90
2023-01-11T14:33:32.357Z,192.05
2023-01-11T14:36:02.114Z,193.57
2023-01-11T14:38:47.905Z,194.60
2023-01-11T14:41:45.675Z,200.87
2023-01-11T14:44:25.512Z,196.27
2023-01-11T14:47:12.009Z,195.45
2023-01-11T14:49:57.916Z,203.23
2023-01-11T14:52:39.569Z,195.17
2023-01-11T14:55:16.907Z,196.27
2023-01-11T14:58:00.748Z,194.55
2023-01-11T15:00:27.545Z,195.63
2023-01-11T15:03:00.582Z,198.27
2023-01-11T15:05:33.300Z,195.30
2023-01-11T15:08:15.535Z,202.27
2023-01-11T15:10:49.876Z,191.27
2023-01-11T15:13:24.691Z,192.43
2023-01-11T15:16:23.083Z,199.80
2023-01-11T15:18:50.063Z,194.23
2023-01-11T15:21:24.131Z,196.18
2023-01-11T15:23:57.935Z,194.13
2023-01-11T15:26:26.828Z,191.23
2023-01-11T15:28:59.558Z,188.77
2023-01-11T15:31:35.541Z,202.70
2023-01-11T15:34:03.687Z,196.63
2023-01-11T15:37:12.890Z,196.45
2023-01-11T15:40:20.225Z,190.93
2023-01-11T15:43:04.168Z,199.75
2023-01-11T15:46:17.638Z,194.48
2023-01-11T15:48:57.371Z,197.60
2023-01-11T15:51:45.920Z,189.65
2023-01-11T15:54:42.595Z,190.73
2023-01-11T15:57:54.767Z,191.50
2023-01-11T16:00:51.169Z,185.82
2023-01-11T16:03:36.059Z,188.85
2023-01-11T16:06:19.837Z,185.60
2023-01-11T16:09:05.891Z,187.95
2023-01-11T16:11:57.537Z,197.52
2023-01-11T16:14:53.675Z,183.27
2023-01-11T16:17:23.362Z,199.32
2023-01-11T16:19:56.638Z,199.43
2023-01-11T16:22:27.674Z,192.13
2023-01-11T16:24:59.998Z,206.63
2023-01-11T16:27:29.589Z,210.50
2023-01-11T16:29:56.966Z,222.18
2023-01-11T16:32:32.966Z,223.95
2023-01-11T16:35:01.895Z,230.55
2023-01-11T16:37:31.564Z,214.52
2023-01-11T16:40:12.200Z,227.45
2023-01-11T16:42:42.802Z,231.15
2023-01-11T16:45:19.109Z,233.02
2023-01-11T16:50:36.631Z,225.82
2023-01-11T16:53:13.211Z,233.13
2023-01-11T16:55:42.854Z,225.05
2023-01-11T16:58:30.553Z,221.15
2023-01-11T17:01:06.363Z,218.10
2023-01-11T17:03:43.229Z,218.98
2023-01-11T17:06:13.632Z,235.88
2023-01-11T17:08:43.193Z,219.32
2023-01-11T17:11:31.024Z,208.00
2023-01-11T17:14:16.606Z,206.38
2023-01-11T17:16:49.811Z,229.40
2023-01-11T17:19:20.323Z,214.65
2023-01-11T17:21:52.995Z,207.65
2023-01-11T17:24:26.344Z,216.88
2023-01-11T17:26:57.043Z,214.30
2023-01-11T17:29:27.454Z,209.80
2023-01-11T17:31:55.679Z,230.70
2023-01-11T17:34:28.465Z,217.45
2023-01-11T17:36:57.562Z,222.40
2023-01-11T17:39:36.865Z,216.43
2023-01-11T17:42:27.470Z,216.80
2023-01-11T17:45:13.511Z,211.43
2023-01-11T17:47:46.583Z,207.57
2023-01-11T17:50:22.112Z,210.00
2023-01-11T17:52:57.136Z,215.38
2023-01-11T17:55:27.194Z,210.43
2023-01-11T17:58:19.632Z,214.07
2023-01-11T18:01:16.042Z,196.73
2023-01-11T18:03:51.709Z,205.88
2023-01-11T18:06:21.598Z,208.30
2023-01-11T18:08:59.342Z,204.65
2023-01-11T18:11:28.175Z,221.05
2023-01-11T18:13:59.473Z,231.00
2023-01-11T18:16:26.652Z,232.98
2023-01-11T18:18:55.386Z,228.27
2023-01-11T18:21:40.520Z,242.05
2023-01-11T18:24:10.857Z,225.60
2023-01-11T18:26:40.415Z,230.98
2023-01-11T18:29:38.187Z,223.20
2023-01-11T18:32:08.302Z,211.43
2023-01-11T18:34:35.145Z,217.48
2023-01-11T18:37:06.516Z,219.93
2023-01-11T18:39:34.825Z,211.45
2023-01-11T18:42:09.532Z,210.15
2023-01-11T18:44:38.530Z,212.73
2023-01-11T18:47:17.613Z,206.75
2023-01-11T18:49:45.071Z,200.95
2023-01-11T18:52:12.602Z,209.68
2023-01-11T18:54:40.267Z,206.25
2023-01-11T18:57:07.296Z,211.95
2023-01-11T18:59:34.342Z,199.18
2023-01-11T19:02:17.792Z,207.60
2023-01-11T19:04:45.406Z,200.77
2023-01-11T19:07:13.585Z,223.02
2023-01-11T19:09:40.684Z,227.98
2023-01-11T19:12:08.096Z,232.75
2023-01-11T19:14:35.029Z,216.95
2023-01-11T19:17:02.823Z,205.18
2023-01-11T19:19:29.671Z,211.90
2023-01-11T19:21:56.530Z,213.80
2023-01-11T19:24:23.374Z,202.30
2023-01-11T19:26:50.516Z,206.15
2023-01-11T19:29:19.286Z,211.52
2023-01-11T19:31:46.966Z,214.13
2023-01-11T19:34:14.383Z,204.07
2023-01-11T19:36:41.284Z,206.98
2023-01-11T19:39:08.730Z,201.38
2023-01-11T19:41:54.810Z,227.27
2023-01-11T19:44:22.858Z,204.93
2023-01-11T19:46:56.761Z,210.15
2023-01-11T19:49:31.588Z,261.30
2023-01-11T19:52:00.353Z,209.95
2023-01-11T19:54:28.626Z,200.90
2023-01-11T19:56:55.705Z,204.60
2023-01-11T19:59:22.674Z,214.20
2023-01-11T20:01:49.638Z,210.60
2023-01-11T20:04:16.588Z,207.98
2023-01-11T20:06:50.745Z,209.57
2023-01-11T20:09:18.798Z,202.88
2023-01-11T20:11:46.639Z,207.60
2023-01-11T20:14:13.520Z,200.90
2023-01-11T20:16:40.361Z,204.93
2023-01-11T20:19:07.433Z,197.13
2023-01-11T20:21:35.372Z,205.35
2023-01-11T20:24:03.081Z,194.23
2023-01-11T20:26:31.535Z,200.20
2023-01-11T20:28:58.888Z,194.95
2023-01-11T20:31:28.498Z,194.15
2023-01-11T20:33:56.271Z,201.40
2023-01-11T20:36:24.733Z,210.63
2023-01-11T20:38:53.009Z,209.00
2023-01-11T20:41:41.366Z,212.27
2023-01-11T20:44:09.108Z,214.23
2023-01-11T20:46:37.583Z,215.00
2023-01-11T20:49:05.660Z,207.15
2023-01-11T20:51:32.569Z,220.57
2023-01-11T20:53:59.692Z,204.60
2023-01-11T20:56:26.815Z,211.57
2023-01-11T20:58:53.804Z,200.85
2023-01-11T21:01:26.119Z,212.32
2023-01-11T21:04:19.627Z,214.93
2023-01-11T21:06:50.995Z,204.20
2023-01-11T21:09:18.813Z,216.63
2023-01-11T21:11:54.163Z,203.70
2023-01-11T21:14:22.561Z,203.50
2023-01-11T21:16:49.508Z,201.95
2023-01-11T21:19:16.475Z,194.07
2023-01-11T21:21:43.826Z,200.35
2023-01-11T21:24:13.766Z,188.52
2023-01-11T21:26:42.549Z,215.18
2023-01-11T21:29:10.785Z,204.32
2023-01-11T21:31:40.668Z,195.57
2023-01-11T21:34:08.337Z,204.23
2023-01-11T21:36:35.461Z,218.07
2023-01-11T21:39:02.827Z,205.02
2023-01-11T21:41:50.407Z,199.15
2023-01-11T21:44:18.911Z,198.38
2023-01-11T21:46:46.182Z,203.48
2023-01-11T21:49:14.025Z,201.52
2023-01-11T21:51:41.899Z,200.02
2023-01-11T21:54:11.313Z,185.65
2023-01-11T21:56:38.894Z,239.45
2023-01-11T21:59:05.767Z,215.93
2023-01-11T22:01:32.656Z,213.55
2023-01-11T22:03:59.816Z,216.00
2023-01-11T22:06:26.716Z,214.85
2023-01-11T22:08:53.748Z,212.25
2023-01-11T22:11:22.733Z,209.70
2023-01-11T22:13:49.611Z,208.63
2023-01-11T22:16:18.387Z,205.88
2023-01-11T22:18:45.903Z,196.10
2023-01-11T22:21:18.381Z,206.18
2023-01-11T22:23:47.131Z,198.68
2023-01-11T22:26:17.078Z,233.40
2023-01-11T22:29:03.590Z,251.88
2023-01-11T22:31:31.516Z,226.27
2023-01-11T22:33:59.233Z,214.80
2023-01-11T22:36:27.551Z,234.18
2023-01-11T22:38:56.125Z,206.70
2023-01-11T22:41:24.227Z,200.38
2023-01-11T22:43:51.888Z,200.88
2023-01-11T22:46:21.204Z,202.43
2023-01-11T22:48:48.946Z,191.45
2023-01-11T22:51:17.851Z,193.40
2023-01-11T22:53:48.086Z,210.13
2023-01-11T22:56:18.828Z,214.73
2023-01-11T22:58:47.291Z,192.05
2023-01-11T23:01:15.667Z,208.63
2023-01-11T23:03:42.956Z,204.55
2023-01-11T23:06:10.343Z,206.10
2023-01-11T23:08:41.037Z,203.45
2023-01-11T23:11:09.506Z,211.32
2023-01-11T23:13:55.249Z,201.30
2023-01-11T23:16:23.012Z,202.63
2023-01-11T23:18:50.006Z,196.75
2023-01-11T23:21:17.348Z,201.73
2023-01-11T23:23:44.548Z,199.43
2023-01-11T23:26:18.049Z,191.60
2023-01-11T23:28:48.285Z,196.90
2023-01-11T23:31:18.173Z,207.07
2023-01-11T23:33:46.489Z,197.02
2023-01-11T23:36:14.046Z,194.20
2023-01-11T23:38:41.493Z,186.77
2023-01-11T23:41:40.450Z,187.38
2023-01-11T23:44:09.455Z,192.30
2023-01-11T23:46:55.895Z,195.32
2023-01-11T23:49:24.904Z,192.95
2023-01-11T23:51:52.281Z,196.82
2023-01-11T23:54:19.111Z,188.27
2023-01-11T23:56:45.961Z,191.85
2023-01-11T23:59:13.164Z,193.95
